Time;durP1;ratioP1;P1;durP2;ratioP2;P2;SDS_P1;SDS_P2;PMS_P1;PMS_P2;Temp;Humidity;BMP_temperature;BMP_pressure;BME280_temperature;BME280_humidity;BME280_pressure;Samples;Min_cycle;Max_cycle;Signal;HPM_P1;HPM_P2
2021/10/14 00:01:54;;;;;;;12.90;6.47;;;;;;;1.34;82.52;99917.78;1766753;79;20973;-69
2021/10/14 00:04:21;;;;;;;12.60;5.95;;;;;;;1.34;82.52;99917.78;1759483;79;21107;-69
2021/10/14 00:06:47;;;;;;;11.85;6.33;;;;;;;1.52;82.43;99920.23;1764162;80;21550;-69
2021/10/14 00:09:15;;;;;;;9.48;5.55;;;;;;;1.63;82.54;99918.88;1760838;79;20990;-69
2021/10/14 00:11:41;;;;;;;12.15;5.55;;;;;;;1.75;82.55;99910.19;1761951;79;21493;-69
2021/10/14 00:14:10;;;;;;;8.75;4.87;;;;;;;1.82;82.60;99896.41;1758801;79;20959;-69
2021/10/14 00:16:36;;;;;;;5.47;3.75;;;;;;;1.91;82.70;99892.45;1755575;79;21073;-69
2021/10/14 00:19:03;;;;;;;5.70;3.72;;;;;;;2.03;82.89;99897.08;1755427;79;21533;-69
2021/10/14 00:21:30;;;;;;;6.42;3.33;;;;;;;2.15;82.98;99891.79;1756323;79;27249;-69
2021/10/14 00:23:57;;;;;;;4.83;3.07;;;;;;;2.27;83.09;99890.39;1760183;80;20967;-69
2021/10/14 00:26:24;;;;;;;6.25;3.02;;;;;;;2.40;83.12;99899.67;1754248;79;21014;-68
2021/10/14 00:28:50;;;;;;;5.70;3.10;;;;;;;2.54;83.13;99902.53;1755901;79;21903;-70
2021/10/14 00:31:17;;;;;;;6.97;3.10;;;;;;;2.65;83.09;99908.41;1754740;79;20896;-68
2021/10/14 00:33:43;;;;;;;6.83;3.37;;;;;;;2.76;83.08;99910.87;1751901;80;21678;-69
2021/10/14 00:36:10;;;;;;;6.70;3.00;;;;;;;2.86;83.10;99908.16;1766448;79;21014;-70
2021/10/14 00:38:37;;;;;;;7.17;2.90;;;;;;;2.98;83.09;99910.16;1760987;79;20947;-70
2021/10/14 00:41:03;;;;;;;7.43;2.73;;;;;;;3.06;83.06;99910.91;1770999;79;22261;-69
2021/10/14 00:43:30;;;;;;;6.15;2.62;;;;;;;3.13;83.05;99903.48;1782402;78;21142;-69
2021/10/14 00:45:57;;;;;;;7.03;3.17;;;;;;;3.21;83.10;99908.11;1778686;78;20986;-69
2021/10/14 00:48:24;;;;;;;5.85;3.25;;;;;;;3.27;83.09;99905.42;1775640;78;20894;-69
2021/10/14 00:50:51;;;;;;;6.27;3.13;;;;;;;3.34;83.00;99908.80;1785455;78;21542;-68
2021/10/14 00:53:17;;;;;;;5.65;2.90;;;;;;;3.40;82.99;99905.27;1778331;78;21497;-68
2021/10/14 00:55:44;;;;;;;3.93;2.83;;;;;;;3.44;83.10;99907.76;1786161;78;21488;-68
2021/10/14 00:58:11;;;;;;;5.28;3.15;;;;;;;3.49;83.08;99899.51;1781067;79;21496;-69
2021/10/14 01:00:37;;;;;;;3.12;2.52;;;;;;;3.51;82.96;99895.19;1778873;78;21054;-68
2021/10/14 01:03:04;;;;;;;4.35;2.55;;;;;;;3.53;82.97;99887.43;1753724;78;22394;-68
2021/10/14 01:05:31;;;;;;;3.20;2.17;;;;;;;3.54;82.92;99880.09;1783488;79;21426;-69
2021/10/14 01:07:57;;;;;;;10.37;2.70;;;;;;;3.52;82.95;99871.50;1784674;79;21106;-68
2021/10/14 01:10:24;;;;;;;4.73;2.23;;;;;;;3.51;82.97;99880.14;1778032;78;21681;-68
2021/10/14 01:12:51;;;;;;;3.20;1.90;;;;;;;3.52;83.00;99887.00;1780650;78;21065;-68
2021/10/14 01:15:24;;;;;;;4.03;2.02;;;;;;;3.53;83.10;99893.88;1781684;78;21532;-68
2021/10/14 01:17:52;;;;;;;3.72;1.90;;;;;;;3.54;83.13;99892.99;1787139;78;21917;-68
2021/10/14 01:20:19;;;;;;;3.75;2.37;;;;;;;3.56;83.13;99891.25;1793076;79;20881;-68
2021/10/14 01:22:45;;;;;;;3.20;2.23;;;;;;;3.58;83.20;99893.34;1791500;79;21522;-68
2021/10/14 01:25:12;;;;;;;4.75;2.17;;;;;;;3.62;83.21;99890.30;1784960;78;20894;-68
2021/10/14 01:27:39;;;;;;;4.97;2.77;;;;;;;3.65;83.24;99885.92;1789231;78;21083;-68
2021/10/14 01:30:09;;;;;;;5.40;1.75;;;;;;;3.70;83.27;99886.71;1789942;78;21482;-68
2021/10/14 01:32:36;;;;;;;3.15;1.90;;;;;;;3.74;83.26;99876.73;1796396;78;20980;-68
2021/10/14 01:35:05;;;;;;;3.87;2.00;;;;;;;3.80;83.27;99877.91;1790944;79;26459;-69
2021/10/14 01:37:32;;;;;;;3.70;2.25;;;;;;;3.85;83.27;99871.83;1790387;79;20980;-68
2021/10/14 01:39:59;;;;;;;5.87;2.85;;;;;;;3.90;83.24;99875.19;1788043;79;21521;-68
2021/10/14 01:42:26;;;;;;;5.58;2.55;;;;;;;3.95;83.24;99865.59;1787952;80;20950;-68
2021/10/14 01:44:53;;;;;;;6.37;2.45;;;;;;;4.00;83.22;99876.71;1784146;80;21476;-68
2021/10/14 01:47:19;;;;;;;4.05;1.90;;;;;;;4.04;83.20;99871.92;1789678;78;20929;-69
2021/10/14 01:49:46;;;;;;;4.17;2.15;;;;;;;4.08;83.17;99872.70;1780352;78;20935;-68
2021/10/14 01:52:13;;;;;;;3.50;2.15;;;;;;;4.09;83.13;99875.27;1770743;78;21006;-69
2021/10/14 01:54:39;;;;;;;3.80;2.40;;;;;;;4.11;83.16;99874.78;1783535;78;21459;-68
2021/10/14 01:57:06;;;;;;;4.87;1.95;;;;;;;4.16;83.27;99872.13;1780802;78;20934;-69
2021/10/14 01:59:32;;;;;;;4.08;2.10;;;;;;;4.19;83.21;99869.03;1787100;78;21660;-69
2021/10/14 02:01:59;;;;;;;4.67;2.47;;;;;;;4.19;83.17;99872.91;1781723;78;21066;-69
2021/10/14 02:04:26;;;;;;;3.30;2.00;;;;;;;4.21;83.23;99875.03;1776733;78;20894;-68
2021/10/14 02:06:53;;;;;;;4.42;2.60;;;;;;;4.23;83.22;99874.58;1762686;79;21400;-69
2021/10/14 02:09:19;;;;;;;3.02;1.95;;;;;;;4.26;83.28;99874.51;1784462;78;21599;-69
2021/10/14 02:11:46;;;;;;;5.53;2.22;;;;;;;4.31;83.30;99872.27;1787853;78;21148;-69
2021/10/14 02:14:12;;;;;;;4.33;2.05;;;;;;;4.33;83.36;99864.05;1789306;79;20972;-69
2021/10/14 02:16:39;;;;;;;3.30;1.90;;;;;;;4.37;83.36;99864.38;1784244;79;21015;-68
2021/10/14 02:19:06;;;;;;;4.15;2.20;;;;;;;4.40;83.31;99854.02;1785705;78;21070;-68
2021/10/14 02:21:32;;;;;;;3.53;2.10;;;;;;;4.42;83.48;99856.95;1789388;80;22041;-68
2021/10/14 02:23:59;;;;;;;3.47;1.75;;;;;;;4.46;83.37;99852.59;1787081;80;21016;-68
2021/10/14 02:26:26;;;;;;;3.90;2.05;;;;;;;4.45;83.33;99852.16;1788523;78;20965;-68
2021/10/14 02:28:52;;;;;;;3.65;1.98;;;;;;;4.46;83.38;99847.42;1788554;78;21020;-68
2021/10/14 02:31:19;;;;;;;4.53;1.98;;;;;;;4.48;83.43;99843.05;1780437;78;22317;-69
2021/10/14 02:33:45;;;;;;;3.93;2.20;;;;;;;4.49;83.41;99847.35;1790750;79;20976;-69
2021/10/14 02:36:12;;;;;;;8.88;3.45;;;;;;;4.49;83.36;99848.64;1788073;78;20960;-68
2021/10/14 02:38:39;;;;;;;5.20;2.17;;;;;;;4.47;83.41;99843.94;1780010;78;21121;-68
2021/10/14 02:41:05;;;;;;;5.17;2.25;;;;;;;4.47;83.49;99846.52;1788869;78;21461;-68
2021/10/14 02:43:32;;;;;;;5.25;2.25;;;;;;;4.49;83.50;99852.52;1788219;78;21473;-68
2021/10/14 02:45:58;;;;;;;4.80;2.15;;;;;;;4.48;83.52;99848.22;1772256;79;21638;-68
2021/10/14 02:48:25;;;;;;;4.15;2.08;;;;;;;4.49;83.58;99844.77;1768805;79;21077;-69
2021/10/14 02:50:52;;;;;;;5.05;2.45;;;;;;;4.48;83.54;99849.09;1769898;79;21544;-69
2021/10/14 02:53:18;;;;;;;3.58;1.72;;;;;;;4.49;83.62;99847.35;1776555;79;21029;-68
2021/10/14 02:55:45;;;;;;;5.13;2.70;;;;;;;4.49;83.64;99846.91;1772205;79;21451;-68
2021/10/14 02:58:12;;;;;;;7.00;2.15;;;;;;;4.51;83.68;99844.30;1775231;79;20994;-68
2021/10/14 03:00:38;;;;;;;5.72;2.40;;;;;;;4.51;83.68;99843.02;1774624;80;21814;-69
2021/10/14 03:03:05;;;;;;;5.58;2.25;;;;;;;4.53;83.73;99839.92;1771410;80;20970;-68
2021/10/14 03:05:31;;;;;;;3.92;2.02;;;;;;;4.54;83.74;99831.72;1762681;79;20987;-68
2021/10/14 03:07:58;;;;;;;4.92;2.08;;;;;;;4.55;83.73;99834.29;1769133;79;21148;-69
2021/10/14 03:10:25;;;;;;;3.37;2.10;;;;;;;4.58;83.81;99844.56;1767409;80;21635;-68
2021/10/14 03:12:52;;;;;;;3.47;2.10;;;;;;;4.59;83.83;99833.33;1772725;79;21065;-68
2021/10/14 03:15:18;;;;;;;5.90;2.17;;;;;;;4.59;83.84;99830.74;1769559;79;22274;-68
2021/10/14 03:17:45;;;;;;;4.75;2.33;;;;;;;4.64;83.86;99836.67;1773420;80;21061;-68
2021/10/14 03:20:12;;;;;;;6.85;2.47;;;;;;;4.65;83.91;99828.05;1768351;79;21974;-68
2021/10/14 03:22:38;;;;;;;6.58;2.27;;;;;;;4.64;83.89;99823.74;1770314;79;20950;-69
2021/10/14 03:25:07;;;;;;;5.92;2.40;;;;;;;4.65;83.92;99820.30;1768737;79;20923;-68
2021/10/14 03:27:33;;;;;;;4.65;2.15;;;;;;;4.64;83.89;99810.81;1770526;80;21128;-69
2021/10/14 03:30:00;;;;;;;3.83;2.40;;;;;;;4.64;83.92;99809.52;1775475;79;21052;-68
2021/10/14 03:32:27;;;;;;;4.97;2.30;;;;;;;4.64;83.95;99814.69;1776953;79;21507;-68
2021/10/14 03:34:54;;;;;;;4.17;1.82;;;;;;;4.62;83.93;99809.14;1774586;79;20982;-69
2021/10/14 03:37:20;;;;;;;3.70;2.17;;;;;;;4.62;83.97;99806.14;1768215;80;21642;-68
2021/10/14 03:39:47;;;;;;;3.20;1.67;;;;;;;4.62;84.00;99806.14;1775645;80;21031;-68
2021/10/14 03:42:14;;;;;;;4.47;2.27;;;;;;;4.62;84.00;99804.84;1738752;79;20958;-68
2021/10/14 03:44:41;;;;;;;5.37;1.90;;;;;;;4.62;84.02;99803.55;1738611;81;21864;-68
2021/10/14 03:47:07;;;;;;;3.33;2.00;;;;;;;4.63;84.09;99789.73;1736218;81;21456;-68
2021/10/14 03:49:34;;;;;;;6.22;2.40;;;;;;;4.64;84.12;99795.30;1736594;81;20984;-68
2021/10/14 03:52:00;;;;;;;3.90;2.40;;;;;;;4.64;84.13;99792.70;1736000;81;20914;-69
2021/10/14 03:54:28;;;;;;;4.20;2.72;;;;;;;4.62;84.13;99786.74;1729174;81;20994;-69
2021/10/14 03:56:55;;;;;;;3.50;2.15;;;;;;;4.62;84.18;99784.16;1728924;81;21130;-68
2021/10/14 03:59:21;;;;;;;3.55;2.52;;;;;;;4.62;84.22;99784.16;1733429;81;21020;-68
2021/10/14 04:01:48;;;;;;;5.00;2.30;;;;;;;4.61;84.27;99785.02;1744911;81;21513;-68
2021/10/14 04:04:15;;;;;;;4.97;2.62;;;;;;;4.63;84.33;99785.84;1732145;81;21028;-68
2021/10/14 04:06:42;;;;;;;3.87;2.30;;;;;;;4.64;84.37;99784.10;1746039;81;21539;-69
2021/10/14 04:09:08;;;;;;;5.97;2.58;;;;;;;4.66;84.45;99783.19;1725676;81;21179;-69
2021/10/14 04:11:35;;;;;;;4.47;2.52;;;;;;;4.66;84.47;99787.52;1735581;81;20938;-69
2021/10/14 04:14:02;;;;;;;4.03;2.03;;;;;;;4.68;84.55;99789.19;1740704;81;21012;-69
2021/10/14 04:16:28;;;;;;;4.58;2.65;;;;;;;4.68;84.56;99790.48;1737722;81;21048;-67
2021/10/14 04:18:55;;;;;;;4.70;3.15;;;;;;;4.70;84.60;99787.84;1730072;81;21071;-68
2021/10/14 04:21:21;;;;;;;4.87;3.08;;;;;;;4.71;84.60;99787.83;1736523;81;21468;-66
2021/10/14 04:23:48;;;;;;;7.83;3.50;;;;;;;4.71;84.62;99786.53;1726842;81;20982;-66
2021/10/14 04:26:16;;;;;;;6.30;3.33;;;;;;;4.73;84.64;99785.63;1729467;81;21080;-66
2021/10/14 04:28:43;;;;;;;7.53;3.72;;;;;;;4.73;84.64;99798.56;1729150;81;20993;-66
2021/10/14 04:31:10;;;;;;;6.30;2.85;;;;;;;4.73;84.68;99784.34;1729972;81;21084;-66
2021/10/14 04:33:36;;;;;;;3.85;2.95;;;;;;;4.74;84.69;99782.19;1733490;81;21595;-66
2021/10/14 04:36:04;;;;;;;5.50;3.10;;;;;;;4.74;84.67;99777.00;1731193;81;20982;-66
2021/10/14 04:38:32;;;;;;;7.62;3.35;;;;;;;4.74;84.69;99783.47;1728172;81;20974;-66
2021/10/14 04:40:58;;;;;;;;;;;;;;;4.71;84.65;99781.36;1751696;80;21612;-65
2021/10/14 04:43:25;;;;;;;5.72;3.25;;;;;;;4.69;84.67;99780.53;1768001;79;20111;-66
2021/10/14 04:45:53;;;;;;;9.65;4.42;;;;;;;4.66;84.70;99768.96;1769293;79;21126;-66
2021/10/14 04:48:20;;;;;;;7.67;5.87;;;;;;;4.64;84.70;99761.67;1772598;79;20978;-66
2021/10/14 04:50:47;;;;;;;12.13;5.93;;;;;;;4.64;84.69;99760.83;1765162;79;21053;-66
2021/10/14 04:53:13;;;;;;;7.85;4.55;;;;;;;4.62;84.73;99757.42;1766988;80;21143;-66
2021/10/14 04:55:41;;;;;;;9.15;4.17;;;;;;;4.58;84.68;99773.45;1769644;79;20962;-66
2021/10/14 04:58:07;;;;;;;8.03;4.00;;;;;;;4.57;84.76;99774.80;1769997;79;21117;-66
2021/10/14 05:00:34;;;;;;;5.30;3.42;;;;;;;4.55;84.78;99777.41;1772958;79;21039;-66
2021/10/14 05:03:01;;;;;;;5.90;3.40;;;;;;;4.53;84.79;99779.16;1772084;79;21802;-67
2021/10/14 05:05:27;;;;;;;5.70;3.20;;;;;;;4.50;84.79;99781.81;1767523;79;21808;-66
2021/10/14 05:07:54;;;;;;;9.48;3.52;;;;;;;4.46;84.73;99781.48;1765999;79;21048;-66
2021/10/14 05:10:21;;;;;;;10.10;4.30;;;;;;;4.41;84.77;99784.61;1767060;79;21107;-66
2021/10/14 05:12:48;;;;;;;11.53;4.30;;;;;;;4.37;84.84;99793.29;1767346;79;21037;-66
2021/10/14 05:15:14;;;;;;;10.08;5.65;;;;;;;4.31;84.85;99783.93;1766760;79;21149;-66
2021/10/14 05:17:41;;;;;;;11.97;6.95;;;;;;;4.26;84.94;99786.63;1763933;79;20999;-66
2021/10/14 05:20:10;;;;;;;14.47;7.22;;;;;;;4.20;84.92;99790.64;1770525;79;21040;-66
2021/10/14 05:22:37;;;;;;;15.25;8.70;;;;;;;4.15;84.94;99786.00;1770807;79;21054;-66
2021/10/14 05:25:06;;;;;;;11.12;7.33;;;;;;;4.13;85.03;99786.46;1769012;79;20990;-66
2021/10/14 05:27:34;;;;;;;12.53;6.08;;;;;;;4.13;85.06;99790.34;1746605;80;21057;-66
2021/10/14 05:30:01;;;;;;;;;;;;;;;4.13;85.13;99782.58;1770477;79;21058;-65
2021/10/14 05:32:29;;;;;;;7.17;4.28;;;;;;;4.17;85.20;99789.83;1766824;79;20119;-66
2021/10/14 05:34:55;;;;;;;8.78;5.00;;;;;;;4.19;85.22;99790.20;1765778;79;22146;-66
2021/10/14 05:37:24;;;;;;;8.55;4.47;;;;;;;4.29;85.37;99780.55;1762666;80;21003;-66
2021/10/14 05:39:50;;;;;;;7.80;4.45;;;;;;;4.39;85.37;99776.02;1767037;79;21065;-66
2021/10/14 05:42:17;;;;;;;7.92;4.50;;;;;;;4.47;85.28;99777.56;1759869;79;21033;-66
2021/10/14 05:44:43;;;;;;;6.62;4.00;;;;;;;4.55;85.27;99779.98;1757806;79;21011;-66
2021/10/14 05:47:10;;;;;;;8.30;4.03;;;;;;;4.63;85.29;99778.09;1755925;79;21178;-66
2021/10/14 05:49:37;;;;;;;14.10;4.85;;;;;;;4.80;85.42;99787.21;1761952;79;21104;-66
2021/10/14 05:52:05;;;;;;;8.90;4.53;;;;;;;4.98;85.32;99777.71;1760831;81;20964;-66
2021/10/14 05:54:32;;;;;;;6.62;4.22;;;;;;;5.05;85.15;99784.91;1756390;81;20949;-66
2021/10/14 05:56:59;;;;;;;7.95;4.85;;;;;;;5.11;85.14;99784.31;1757928;81;21606;-66
2021/10/14 05:59:26;;;;;;;7.92;4.90;;;;;;;5.14;85.02;99776.47;1765059;79;21473;-66
2021/10/14 06:01:52;;;;;;;8.10;4.85;;;;;;;5.14;85.02;99782.94;1765165;79;21031;-66
2021/10/14 06:04:19;;;;;;;14.98;4.92;;;;;;;5.18;85.12;99780.27;1761619;79;20949;-66
2021/10/14 06:06:46;;;;;;;12.57;4.80;;;;;;;5.20;85.13;99787.56;1757953;79;21582;-66
2021/10/14 06:09:12;;;;;;;10.15;4.80;;;;;;;5.24;85.22;99787.91;1756091;79;21044;-67
2021/10/14 06:11:39;;;;;;;6.05;4.33;;;;;;;5.29;85.22;99786.03;1755078;81;21089;-67
2021/10/14 06:14:06;;;;;;;7.10;4.87;;;;;;;5.31;85.28;99781.68;1760305;79;20894;-66
2021/10/14 06:16:33;;;;;;;10.72;5.25;;;;;;;5.31;85.22;99786.86;1757572;79;21600;-67
2021/10/14 06:19:01;;;;;;;10.77;5.60;;;;;;;5.32;85.25;99788.55;1754768;79;20991;-68
2021/10/14 06:21:28;;;;;;;7.17;4.78;;;;;;;5.33;85.33;99788.97;1759876;80;21660;-66
2021/10/14 06:23:54;;;;;;;9.45;4.95;;;;;;;5.36;85.37;99786.30;1760100;79;21092;-68
2021/10/14 06:26:21;;;;;;;9.33;5.20;;;;;;;5.40;85.46;99791.80;1760883;79;20973;-67
2021/10/14 06:28:48;;;;;;;11.22;5.75;;;;;;;5.46;85.49;99785.61;1762876;79;21480;-67
2021/10/14 06:31:15;;;;;;;21.62;6.00;;;;;;;5.49;85.45;99787.70;1757073;81;21036;-67
2021/10/14 06:33:42;;;;;;;11.22;4.85;;;;;;;5.55;85.61;99781.06;1766188;80;21004;-67
2021/10/14 06:36:09;;;;;;;12.55;5.25;;;;;;;5.65;85.71;99783.41;1763165;79;21630;-67
2021/10/14 06:38:36;;;;;;;11.08;4.78;;;;;;;5.71;85.60;99778.06;1761210;79;20897;-67
2021/10/14 06:41:03;;;;;;;11.38;5.50;;;;;;;5.78;85.58;99777.02;1763666;79;21016;-67
2021/10/14 06:43:29;;;;;;;11.88;5.28;;;;;;;5.79;85.52;99778.71;1767981;79;21096;-66
2021/10/14 06:46:23;;;;;;;;;;;;;;;;;;;;;
2021/10/14 06:48:38;;;;;;;8.88;4.70;;;;;;;5.88;85.66;99773.30;1749222;79;21790;-67
2021/10/14 06:51:07;;;;;;;9.85;5.65;;;;;;;5.95;85.68;99785.22;1768251;79;21097;-66
2021/10/14 06:53:47;;;;;;;11.88;5.53;;;;;;;6.02;85.72;99778.98;1763437;79;21014;-68
2021/10/14 06:56:20;;;;;;;11.97;6.05;;;;;;;6.10;85.77;99775.31;1763371;79;21057;-67
2021/10/14 06:58:46;;;;;;;14.23;6.60;;;;;;;6.17;85.71;99774.27;1758418;79;21038;-67
2021/10/14 07:01:32;;;;;;;14.28;7.17;;;;;;;6.25;85.72;99785.27;1762614;80;20970;-67
2021/10/14 07:03:56;;;;;;;10.78;5.60;;;;;;;6.28;85.78;99773.51;1759892;79;20990;-65
2021/10/14 07:07:17;;;;;;;15.65;8.18;;;;;;;6.46;85.81;99765.63;1770008;78;25216;-65
2021/10/14 07:12:45;;;;;;;11.83;6.70;;;;;;;6.63;85.83;99770.30;1853324;76;22051;-65
2021/10/14 07:15:11;;;;;;;12.75;7.75;;;;;;;6.67;85.93;99769.33;1800097;79;20942;-66
2021/10/14 07:17:38;;;;;;;10.75;6.62;;;;;;;6.77;85.98;99762.95;1795011;79;21960;-66
2021/10/14 07:20:09;;;;;;;5.80;4.50;;;;;;;6.87;85.83;99759.17;1796039;79;21482;-66
2021/10/14 07:22:35;;;;;;;18.87;6.35;;;;;;;6.94;85.69;99764.55;1795334;79;21559;-66
2021/10/14 07:25:04;;;;;;;8.38;5.60;;;;;;;7.02;85.86;99763.02;1797218;79;21045;-66
2021/10/14 07:27:31;;;;;;;5.72;4.55;;;;;;;7.10;85.80;99762.78;1791360;78;20997;-66
2021/10/14 07:29:58;;;;;;;7.00;4.00;;;;;;;7.17;85.85;99759.95;1796476;79;21451;-66
2021/10/14 07:32:24;;;;;;;8.18;3.95;;;;;;;7.25;85.73;99759.67;1796156;79;20970;-66
2021/10/14 07:34:51;;;;;;;7.37;3.80;;;;;;;7.27;85.71;99765.67;1790676;79;21019;-66
2021/10/14 07:37:21;;;;;;;7.60;4.17;;;;;;;7.30;85.60;99760.38;1785151;78;21618;-67
2021/10/14 07:39:47;;;;;;;6.30;3.50;;;;;;;7.28;85.59;99749.20;1797457;79;21045;-67
2021/10/14 07:42:15;;;;;;;8.00;4.35;;;;;;;7.33;85.62;99747.28;1789633;79;21500;-67
2021/10/14 07:44:43;;;;;;;7.60;3.80;;;;;;;7.39;85.75;99751.00;1793132;78;28291;-67
2021/10/14 07:47:10;;;;;;;6.17;3.10;;;;;;;7.39;85.68;99747.09;1797822;78;20911;-67
2021/10/14 07:49:36;;;;;;;8.53;4.77;;;;;;;7.40;85.69;99747.94;1801025;78;21017;-67
2021/10/14 07:52:03;;;;;;;3.98;2.75;;;;;;;7.41;85.73;99749.63;1789323;79;21005;-68
2021/10/14 07:54:29;;;;;;;5.97;2.92;;;;;;;7.38;85.56;99745.38;1743624;80;21494;-68
2021/10/14 07:56:56;;;;;;;4.12;2.85;;;;;;;7.34;85.63;99740.36;1810217;78;20985;-68
2021/10/14 07:59:23;;;;;;;4.35;2.72;;;;;;;7.37;85.79;99743.70;1807495;78;20958;-67
2021/10/14 08:05:02;;;;;;;;;;;;;;;;;;;;;
2021/10/14 08:07:16;;;;;;;6.05;3.60;;;;;;;7.64;85.90;99739.73;1801998;77;20946;-67
2021/10/14 08:09:59;;;;;;;6.70;3.47;;;;;;;7.76;85.90;99736.73;1819502;77;21443;-67
2021/10/14 08:12:31;;;;;;;7.25;4.60;;;;;;;7.82;85.88;99735.20;1819356;77;21630;-68
2021/10/14 08:15:09;;;;;;;8.13;3.42;;;;;;;7.91;85.75;99740.98;1821682;77;21005;-68
2021/10/14 08:19:31;;;;;;;8.93;3.42;;;;;;;8.17;85.81;99738.26;1791338;78;24541;-66
2021/10/14 08:21:58;;;;;;;4.12;3.35;;;;;;;8.21;85.61;99729.45;1766490;80;21477;-67
2021/10/14 08:24:28;;;;;;;5.12;2.98;;;;;;;8.33;85.60;99728.59;1768428;79;21091;-66
2021/10/14 08:26:54;;;;;;;4.78;3.35;;;;;;;8.41;85.48;99726.13;1764862;79;20987;-66
2021/10/14 08:29:21;;;;;;;4.05;2.62;;;;;;;8.53;85.55;99726.09;1767017;78;21539;-67
2021/10/14 08:31:47;;;;;;;6.95;3.62;;;;;;;8.64;85.63;99727.83;1760137;80;20968;-66
2021/10/14 08:34:14;;;;;;;9.20;3.08;;;;;;;8.80;85.55;99728.55;1766783;80;21032;-67
2021/10/14 08:36:42;;;;;;;4.25;2.95;;;;;;;8.95;85.49;99724.01;1772858;79;22294;-67
2021/10/14 08:39:09;;;;;;;4.62;3.00;;;;;;;9.05;85.31;99725.34;1770114;79;21088;-68
2021/10/14 08:41:36;;;;;;;5.55;3.95;;;;;;;9.13;85.35;99724.57;1769994;80;21040;-68
2021/10/14 08:44:24;;;;;;;14.50;11.73;;;;;;;9.28;85.35;99723.54;1763497;78;20970;-68
2021/10/14 08:46:38;;;;;;;24.85;6.65;;;;;;;9.41;85.22;99716.91;1759504;79;21534;-71
2021/10/14 08:49:08;;;;;;;7.57;3.50;;;;;;;9.52;85.11;99712.08;1732705;80;22301;-70
2021/10/14 08:51:33;;;;;;;13.25;7.95;;;;;;;9.66;85.24;99701.48;1765345;80;20918;-69
2021/10/14 08:54:00;;;;;;;6.08;3.60;;;;;;;9.78;85.10;99700.97;1770765;80;20988;-68
2021/10/14 08:56:28;;;;;;;8.20;4.15;;;;;;;9.91;84.95;99703.39;1769572;80;21108;-68
2021/10/14 08:58:55;;;;;;;6.58;3.77;;;;;;;9.98;84.60;99694.39;1771093;80;21001;-69
2021/10/14 09:01:22;;;;;;;5.78;3.98;;;;;;;10.09;84.74;99699.13;1771331;80;21082;-68
2021/10/14 09:03:51;;;;;;;8.90;4.22;;;;;;;10.19;84.53;99696.93;1770386;80;20980;-68
2021/10/14 09:06:18;;;;;;;5.87;3.08;;;;;;;10.21;84.24;99692.50;1771052;78;20926;-68
2021/10/14 09:08:47;;;;;;;;;;;;;;;10.23;84.02;99690.67;1778604;80;20965;-68
2021/10/14 09:11:22;;;;;;;6.33;3.17;;;;;;;10.29;84.29;99685.19;1764798;79;20172;-69
2021/10/14 09:14:01;;;;;;;3.92;2.33;;;;;;;10.40;84.40;99671.64;1771632;80;21852;-68
2021/10/14 09:16:40;;;;;;;5.65;2.87;;;;;;;10.56;84.34;99676.96;1772591;78;21523;-67
2021/10/14 09:19:29;;;;;;;5.42;2.80;;;;;;;10.66;83.83;99676.91;1762114;80;20944;-67
2021/10/14 09:22:01;;;;;;;5.12;2.62;;;;;;;10.73;84.14;99678.33;1749585;79;20936;-67
2021/10/14 09:24:38;;;;;;;3.77;2.25;;;;;;;10.72;83.71;99674.00;1747006;80;21620;-67
2021/10/14 09:27:30;;;;;;;;;;;;;;;;;;;;;
2021/10/14 09:29:56;;;;;;;4.33;3.27;;;;;;;10.55;83.35;99667.45;1739616;81;20945;-67
2021/10/14 09:32:31;;;;;;;6.97;4.33;;;;;;;10.37;82.96;99667.41;1746935;81;21565;-66
2021/10/14 09:37:04;;;;;;;6.25;3.27;;;;;;;10.30;83.50;99656.86;1850478;76;22089;-66
2021/10/14 09:39:33;;;;;;;7.05;2.80;;;;;;;10.25;83.39;99662.72;1816264;77;21021;-68
2021/10/14 09:41:59;;;;;;;4.40;2.55;;;;;;;10.12;83.24;99656.41;1814935;77;21515;-68
2021/10/14 09:44:27;;;;;;;3.87;2.87;;;;;;;10.03;83.29;99659.82;1819006;77;21040;-68
2021/10/14 09:50:55;;;;;;;4.65;2.50;;;;;;;9.85;83.10;99649.75;1859222;76;22777;-66
2021/10/14 09:53:27;;;;;;;5.03;2.85;;;;;;;9.77;83.38;99653.62;1774809;78;21273;-67
2021/10/14 09:55:56;;;;;;;4.65;2.60;;;;;;;9.72;83.25;99655.59;1776524;79;22050;-66
2021/10/14 09:58:26;;;;;;;6.60;2.45;;;;;;;9.59;83.13;99656.14;1779215;80;20946;-66
2021/10/14 10:00:54;;;;;;;3.75;2.05;;;;;;;9.54;83.24;99657.27;1780590;79;21525;-66
2021/10/14 10:03:27;;;;;;;4.08;2.45;;;;;;;9.49;83.15;99652.70;1781019;78;21822;-67
2021/10/14 10:05:56;;;;;;;5.75;2.98;;;;;;;9.43;83.08;99663.40;1776898;78;20983;-66
2021/10/14 10:08:36;;;;;;;4.42;2.47;;;;;;;9.44;83.23;99658.14;1779778;80;21468;-66
2021/10/14 10:11:22;;;;;;;4.17;2.30;;;;;;;9.42;83.15;99650.83;1775320;80;20981;-66
2021/10/14 10:14:03;;;;;;;5.42;2.60;;;;;;;9.35;82.94;99658.52;1801383;78;20990;-67
2021/10/14 10:19:16;;;;;;;5.00;2.85;;;;;;;9.32;83.24;99658.65;1748770;79;21540;-66
2021/10/14 10:21:49;;;;;;;3.22;2.45;;;;;;;9.33;83.23;99664.27;1764689;79;22182;-66
2021/10/14 10:24:28;;;;;;;4.97;2.65;;;;;;;9.36;83.25;99656.31;1788915;79;20969;-66
2021/10/14 10:26:58;;;;;;;3.67;2.67;;;;;;;9.43;83.07;99656.89;1779771;79;21012;-67
2021/10/14 10:29:31;;;;;;;6.22;2.47;;;;;;;9.46;83.10;99651.53;1776381;78;21062;-67
2021/10/14 10:32:06;;;;;;;5.00;2.90;;;;;;;9.53;83.35;99659.03;1784241;79;21037;-67
2021/10/14 10:34:47;;;;;;;5.87;2.50;;;;;;;9.69;83.30;99650.52;1776655;79;22422;-68
2021/10/14 10:37:41;;;;;;;5.03;2.62;;;;;;;9.82;83.23;99645.14;1785826;79;20977;-67
2021/10/14 10:40:02;;;;;;;4.85;2.42;;;;;;;9.89;83.05;99645.27;1780303;79;20949;-67
2021/10/14 10:42:40;;;;;;;5.75;2.42;;;;;;;9.87;82.71;99635.35;1783268;78;20978;-67
2021/10/14 10:45:17;;;;;;;5.87;2.62;;;;;;;9.85;82.70;99633.27;1754068;79;20901;-67
2021/10/14 10:47:56;;;;;;;2.85;2.37;;;;;;;9.84;82.78;99631.58;1767835;78;20936;-67
2021/10/14 10:50:51;;;;;;;4.37;2.90;;;;;;;9.84;82.77;99628.98;1780851;78;21656;-67
2021/10/14 10:53:22;;;;;;;4.50;3.02;;;;;;;9.84;82.73;99621.16;1794049;78;21056;-67
2021/10/14 10:55:57;;;;;;;4.35;2.77;;;;;;;9.77;82.52;99614.52;1830828;77;21055;-67
2021/10/14 10:58:52;;;;;;;4.58;2.75;;;;;;;9.77;82.75;99610.59;1832577;77;21092;-67
2021/10/14 11:01:26;;;;;;;5.78;2.67;;;;;;;9.85;82.97;99618.45;1733506;80;21076;-67
2021/10/14 11:04:03;;;;;;;3.52;2.72;;;;;;;9.92;82.67;99619.04;1740713;80;20910;-66
2021/10/14 11:06:33;;;;;;;5.40;3.05;;;;;;;10.02;83.02;99607.24;1737694;80;21576;-66
2021/10/14 11:09:05;;;;;;;3.35;2.72;;;;;;;10.16;82.89;99604.45;1741048;80;21025;-68
2021/10/14 11:11:35;;;;;;;5.62;2.72;;;;;;;10.17;82.52;99600.94;1744727;80;21022;-67
2021/10/14 11:14:03;;;;;;;5.33;2.25;;;;;;;10.16;82.32;99599.23;1747329;80;21076;-68
2021/10/14 11:16:31;;;;;;;4.12;2.52;;;;;;;10.14;82.45;99594.54;1741821;80;20943;-67
2021/10/14 11:19:01;;;;;;;4.25;3.10;;;;;;;10.16;82.43;99598.77;1740342;80;21001;-67
2021/10/14 11:21:30;;;;;;;4.58;2.60;;;;;;;10.23;82.46;99591.52;1718020;81;20931;-67
2021/10/14 11:24:00;;;;;;;4.22;2.62;;;;;;;10.24;82.41;99580.14;1719028;81;21077;-67
2021/10/14 11:26:36;;;;;;;3.92;2.40;;;;;;;10.22;82.30;99585.45;1728196;81;22484;-66
2021/10/14 11:29:19;;;;;;;3.98;2.52;;;;;;;10.20;82.29;99583.84;1715545;80;21596;-67
2021/10/14 11:32:07;;;;;;;4.80;2.70;;;;;;;10.23;82.26;99578.47;1739619;80;21045;-67
2021/10/14 11:34:36;;;;;;;6.42;3.10;;;;;;;10.29;82.43;99581.65;1744274;80;21564;-67
2021/10/14 11:37:11;;;;;;;3.85;2.50;;;;;;;10.36;82.36;99573.05;1743198;80;20983;-67
2021/10/14 11:39:49;;;;;;;2.92;2.17;;;;;;;10.40;82.24;99573.30;1745255;80;21856;-66
2021/10/14 11:42:21;;;;;;;3.87;2.52;;;;;;;10.38;82.17;99567.30;1738038;80;21021;-65
2021/10/14 11:44:53;;;;;;;4.97;2.50;;;;;;;10.38;82.08;99573.83;1745230;80;21594;-65
2021/10/14 11:47:22;;;;;;;4.30;2.27;;;;;;;10.37;81.99;99568.23;1740536;80;20977;-65
2021/10/14 11:50:05;;;;;;;3.00;2.22;;;;;;;10.25;81.75;99563.56;1709092;82;21088;-65
2021/10/14 11:52:34;;;;;;;9.15;2.62;;;;;;;10.15;81.79;99560.56;1754731;80;21526;-65
2021/10/14 11:55:03;;;;;;;4.70;2.62;;;;;;;10.05;81.93;99553.66;1753605;80;21530;-66
2021/10/14 11:57:31;;;;;;;2.40;2.12;;;;;;;10.02;82.08;99557.68;1812994;77;21021;-66
2021/10/14 12:00:00;;;;;;;2.27;1.82;;;;;;;9.90;81.97;99550.45;1845206;76;21016;-67
2021/10/14 12:02:28;;;;;;;3.95;2.22;;;;;;;9.80;82.02;99551.78;1844815;76;21531;-66
2021/10/14 12:04:55;;;;;;;3.75;2.30;;;;;;;9.74;82.16;99552.08;1845370;75;21566;-67
2021/10/14 12:07:25;;;;;;;3.98;2.20;;;;;;;9.67;82.17;99550.69;1848198;75;21407;-66
2021/10/14 12:09:54;;;;;;;3.05;2.08;;;;;;;9.58;82.23;99543.68;1844938;75;21001;-67